Britania, Brazil
Current Conditions -  °F | °C
As of 4:00 PM on Saturday 20 Dec 2014 (Local Time) from SBBW Reporting Station
Scattered Clouds Scattered Clouds  
Wind Chill: 79°   Ceiling: Unl
Heat Index: 82°   Visibility: 6mi
Dew Point: 73°   Wind: 5mph
Humidity: 83%   Direction: 330°NNW
Pressure: 29.83"   Gusts: NA
Location:  15.24°S, 51.16°W
Report Text: SBBW 201800Z 33004KT 9999 SCT020 SCT070 26/23 Q1010
Loading
Personal Weather Stations






























Interactive Weather Map New forecast layout! Learn more

10-Day Weather Forecast

Advertisements
Track Severe Weather on mobile